Terminal Aerodrome Forecast
Issued by NWS Rapid City, SD

Home | Current Version | Previous Version | Graphics & Text | Print | Product List | Glossary On
Versions: 1 2 3 4 5 6 7 8 9 10 11 12 13 14 15 16 17 18
381
FTUS43 KUNR 250520
TAFRAP
TAF
KRAP 250520Z 2506/2606 24004KT P6SM OVC090
     FM251800 33008KT P6SM BKN080
     FM252100 30007KT P6SM BKN050
     FM260000 32005KT P6SM OVC035
     FM260200 30005KT P6SM BKN050=

USA.gov is the U.S. government's official web portal to all federal, state and local government web resources and services.